createdAt,value
2018-02-01T00:00:03.371Z,994.08
2018-02-01T00:01:03.398Z,994.06
2018-02-01T00:02:03.429Z,994.05
2018-02-01T00:03:03.453Z,994.09
2018-02-01T00:04:03.482Z,994.08
2018-02-01T00:05:03.512Z,994.09
2018-02-01T00:06:03.539Z,994.07
2018-02-01T00:07:03.566Z,994.08
2018-02-01T00:08:03.595Z,994.06
2018-02-01T00:09:03.623Z,994.03
2018-02-01T00:10:03.670Z,994.02
2018-02-01T00:11:03.681Z,994.04
2018-02-01T00:12:03.709Z,994.02
2018-02-01T00:13:03.735Z,994.00
2018-02-01T00:14:03.765Z,994.03
2018-02-01T00:15:03.793Z,994.03
2018-02-01T00:16:03.820Z,993.98
2018-02-01T00:17:03.848Z,993.98
2018-02-01T00:18:03.877Z,993.97
2018-02-01T00:19:03.905Z,993.98
2018-02-01T00:20:03.933Z,993.96
2018-02-01T00:21:03.998Z,993.95
2018-02-01T00:22:04.010Z,993.96
2018-02-01T00:23:04.017Z,993.99
2018-02-01T00:24:04.074Z,993.93
2018-02-01T00:25:04.073Z,993.95
2018-02-01T00:26:04.102Z,993.96
2018-02-01T00:27:04.129Z,993.97
2018-02-01T00:28:04.157Z,993.91
2018-02-01T00:29:04.186Z,993.94
2018-02-01T00:30:04.215Z,993.93
2018-02-01T00:31:04.242Z,993.97
2018-02-01T00:32:04.270Z,993.94
2018-02-01T00:33:04.299Z,993.95
2018-02-01T00:34:04.327Z,993.94
2018-02-01T00:35:04.355Z,993.92
2018-02-01T00:36:04.386Z,993.90
2018-02-01T00:37:04.412Z,993.89
2018-02-01T00:38:04.440Z,993.93
2018-02-01T00:39:04.498Z,993.96
2018-02-01T00:40:04.496Z,993.91
2018-02-01T00:41:04.524Z,993.90
2018-02-01T00:42:04.552Z,993.93
2018-02-01T00:43:04.579Z,993.90
2018-02-01T00:44:04.626Z,993.90
2018-02-01T00:45:04.637Z,993.90
2018-02-01T00:46:04.665Z,993.91
2018-02-01T00:47:04.692Z,993.90
2018-02-01T00:48:04.720Z,993.92
2018-02-01T00:49:04.748Z,993.94
2018-02-01T00:50:04.777Z,993.92
2018-02-01T00:51:04.805Z,993.96
2018-02-01T00:52:04.850Z,993.92
2018-02-01T00:53:04.868Z,993.94
2018-02-01T00:54:04.890Z,993.92
2018-02-01T00:55:04.917Z,993.93
2018-02-01T00:56:04.946Z,993.90
2018-02-01T00:57:04.974Z,993.88
2018-02-01T00:58:05.003Z,993.92
2018-02-01T00:59:05.030Z,993.94
2018-02-01T01:00:05.058Z,993.89
2018-02-01T01:01:05.086Z,993.93
2018-02-01T01:02:05.115Z,993.89
2018-02-01T01:03:05.156Z,993.90
2018-02-01T01:04:05.170Z,993.83
2018-02-01T01:05:05.199Z,993.85
2018-02-01T01:06:05.227Z,993.84
2018-02-01T01:07:05.254Z,993.87
2018-02-01T01:08:05.283Z,993.87
2018-02-01T01:09:05.311Z,993.87
2018-02-01T01:10:05.350Z,993.89
2018-02-01T01:11:05.367Z,993.88
2018-02-01T01:12:05.395Z,993.87
2018-02-01T01:13:05.423Z,993.85
2018-02-01T01:14:05.456Z,993.85
2018-02-01T01:15:05.479Z,993.87
2018-02-01T01:16:05.508Z,993.82
2018-02-01T01:17:05.541Z,993.85
2018-02-01T01:18:05.567Z,993.85
2018-02-01T01:19:05.591Z,993.82
2018-02-01T01:20:05.620Z,993.85
2018-02-01T01:21:05.648Z,993.86
2018-02-01T01:22:05.737Z,993.81
2018-02-01T01:23:05.704Z,993.81
2018-02-01T01:24:05.736Z,993.82
2018-02-01T01:25:05.792Z,993.79
2018-02-01T01:26:05.791Z,993.80
2018-02-01T01:27:05.816Z,993.80
2018-02-01T01:28:05.847Z,993.81
2018-02-01T01:29:05.873Z,993.77
2018-02-01T01:30:05.901Z,993.77
2018-02-01T01:31:05.929Z,993.74
2018-02-01T01:32:05.961Z,993.73
2018-02-01T01:33:05.985Z,993.73
2018-02-01T01:34:06.014Z,993.72
2018-02-01T01:35:06.041Z,993.74
2018-02-01T01:36:06.069Z,993.69
2018-02-01T01:37:06.097Z,993.70
2018-02-01T01:38:06.128Z,993.72
2018-02-01T01:39:06.153Z,993.72
2018-02-01T01:40:06.182Z,993.74
2018-02-01T01:41:06.230Z,993.71
2018-02-01T01:42:06.241Z,993.71
2018-02-01T01:43:06.268Z,993.72
2018-02-01T01:44:06.294Z,993.79
2018-02-01T01:45:06.326Z,993.76
2018-02-01T01:46:06.350Z,993.75
2018-02-01T01:47:06.378Z,993.75
2018-02-01T01:48:06.406Z,993.72
2018-02-01T01:49:06.514Z,993.72
2018-02-01T01:50:06.463Z,993.73
2018-02-01T01:51:06.490Z,993.76
2018-02-01T01:52:06.519Z,993.77
2018-02-01T01:53:06.570Z,993.75
2018-02-01T01:54:06.576Z,993.80
2018-02-01T01:55:06.609Z,993.77
2018-02-01T01:56:06.631Z,993.75
2018-02-01T01:57:06.659Z,993.69
2018-02-01T01:58:06.688Z,993.71
2018-02-01T01:59:06.766Z,993.70
2018-02-01T02:00:06.773Z,993.66
2018-02-01T02:01:06.783Z,993.68
2018-02-01T02:02:06.801Z,993.68
2018-02-01T02:03:06.828Z,993.68
2018-02-01T02:04:06.858Z,993.66
2018-02-01T02:05:06.933Z,993.65
2018-02-01T02:06:06.913Z,993.65
2018-02-01T02:07:06.941Z,993.64
2018-02-01T02:08:06.998Z,993.63
2018-02-01T02:09:06.997Z,993.65
2018-02-01T02:10:07.025Z,993.60
2018-02-01T02:11:07.053Z,993.62
2018-02-01T02:12:07.086Z,993.57
2018-02-01T02:13:07.109Z,993.56
2018-02-01T02:14:07.161Z,993.57
2018-02-01T02:15:07.165Z,993.60
2018-02-01T02:16:07.194Z,993.57
2018-02-01T02:17:07.221Z,993.52
2018-02-01T02:18:07.250Z,993.55
2018-02-01T02:19:07.277Z,993.56
2018-02-01T02:20:07.306Z,993.53
2018-02-01T02:21:07.341Z,993.57
2018-02-01T02:22:07.363Z,993.56
2018-02-01T02:23:07.390Z,993.57
2018-02-01T02:24:07.449Z,993.59
2018-02-01T02:25:07.446Z,993.60
2018-02-01T02:26:07.475Z,993.57
2018-02-01T02:27:07.502Z,993.57
2018-02-01T02:28:07.562Z,993.59
2018-02-01T02:29:07.560Z,993.57
2018-02-01T02:30:07.588Z,993.56
2018-02-01T02:31:07.615Z,993.61
2018-02-01T02:32:07.643Z,993.59
2018-02-01T02:33:07.672Z,993.57
2018-02-01T02:34:07.737Z,993.55
2018-02-01T02:35:07.726Z,993.52
2018-02-01T02:36:07.782Z,993.54
2018-02-01T02:37:07.784Z,993.50
2018-02-01T02:38:07.811Z,993.51
2018-02-01T02:39:07.839Z,993.51
2018-02-01T02:40:07.867Z,993.50
2018-02-01T02:41:07.911Z,993.52
2018-02-01T02:42:07.923Z,993.52
2018-02-01T02:43:07.951Z,993.47
2018-02-01T02:44:07.979Z,993.44
2018-02-01T02:45:08.039Z,993.41
2018-02-01T02:46:08.037Z,993.43
2018-02-01T02:47:08.063Z,993.42
2018-02-01T02:48:08.092Z,993.37
2018-02-01T02:49:08.119Z,993.42
2018-02-01T02:50:08.148Z,993.37
2018-02-01T02:51:08.175Z,993.40
2018-02-01T02:52:08.203Z,993.39
2018-02-01T02:53:08.231Z,993.40
2018-02-01T02:54:08.259Z,993.41
2018-02-01T02:55:08.287Z,993.43
2018-02-01T02:56:08.315Z,993.37
2018-02-01T02:57:08.343Z,993.38
2018-02-01T02:58:08.371Z,993.33
2018-02-01T02:59:08.398Z,993.29
2018-02-01T03:00:08.427Z,993.27
2018-02-01T03:01:08.459Z,993.21
2018-02-01T03:02:08.483Z,993.18
2018-02-01T03:03:08.510Z,993.15
2018-02-01T03:04:08.538Z,993.15
2018-02-01T03:05:08.566Z,993.11
2018-02-01T03:06:08.594Z,993.09
2018-02-01T03:07:08.622Z,993.07
2018-02-01T03:08:08.650Z,993.07
2018-02-01T03:09:08.678Z,993.10
2018-02-01T03:10:08.707Z,993.06
2018-02-01T03:11:08.734Z,993.03
2018-02-01T03:12:08.762Z,993.03
2018-02-01T03:13:08.790Z,993.08
2018-02-01T03:14:08.818Z,993.06
2018-02-01T03:15:08.846Z,993.06
2018-02-01T03:16:08.874Z,993.02
2018-02-01T03:17:08.902Z,993.03
2018-02-01T03:18:08.964Z,993.00
2018-02-01T03:19:08.957Z,992.98
2018-02-01T03:20:08.986Z,992.91
2018-02-01T03:21:09.014Z,992.89
2018-02-01T03:22:09.042Z,992.87
2018-02-01T03:23:09.069Z,992.89
2018-02-01T03:24:09.098Z,992.85
2018-02-01T03:25:09.126Z,992.83
2018-02-01T03:26:09.154Z,992.85
2018-02-01T03:27:09.181Z,992.85
2018-02-01T03:28:09.210Z,992.81
2018-02-01T03:29:09.238Z,992.80
2018-02-01T03:30:09.266Z,992.74
2018-02-01T03:31:09.323Z,992.76
2018-02-01T03:32:09.341Z,992.73
2018-02-01T03:33:09.349Z,992.76
2018-02-01T03:34:09.378Z,992.77
2018-02-01T03:35:09.405Z,992.74
2018-02-01T03:36:09.433Z,992.70
2018-02-01T03:37:09.462Z,992.72
2018-02-01T03:38:09.490Z,992.75
2018-02-01T03:39:09.519Z,992.70
2018-02-01T03:40:09.546Z,992.71
2018-02-01T03:41:09.599Z,992.72
2018-02-01T03:42:09.602Z,992.69
2018-02-01T03:43:09.629Z,992.68
2018-02-01T03:44:09.658Z,992.66
2018-02-01T03:45:09.710Z,992.64
2018-02-01T03:46:09.715Z,992.60
2018-02-01T03:47:09.741Z,992.59
2018-02-01T03:48:09.770Z,992.60
2018-02-01T03:49:09.798Z,992.59
2018-02-01T03:50:09.832Z,992.57
2018-02-01T03:51:09.853Z,992.63
2018-02-01T03:52:09.907Z,992.64
2018-02-01T03:53:09.911Z,992.62
2018-02-01T03:54:09.938Z,992.63
2018-02-01T03:55:09.966Z,992.65
2018-02-01T03:56:09.994Z,992.68
2018-02-01T03:57:10.023Z,992.72
2018-02-01T03:58:10.050Z,992.68
2018-02-01T03:59:10.081Z,992.74
2018-02-01T04:00:10.114Z,992.80
2018-02-01T04:01:10.134Z,992.81
2018-02-01T04:02:10.163Z,992.76
2018-02-01T04:03:10.190Z,992.79
2018-02-01T04:04:10.218Z,992.70
2018-02-01T04:05:10.277Z,992.66
2018-02-01T04:06:10.274Z,992.66
2018-02-01T04:07:10.302Z,992.64
2018-02-01T04:08:10.331Z,992.59
2018-02-01T04:09:10.359Z,992.62
2018-02-01T04:10:10.396Z,992.61
2018-02-01T04:11:10.447Z,992.63
2018-02-01T04:12:10.472Z,992.63
2018-02-01T04:13:10.471Z,992.65
2018-02-01T04:14:10.499Z,992.63
2018-02-01T04:15:10.540Z,992.61
2018-02-01T04:16:10.555Z,992.65
2018-02-01T04:17:10.582Z,992.60
2018-02-01T04:18:10.611Z,992.62
2018-02-01T04:19:10.643Z,992.60
2018-02-01T04:20:10.666Z,992.56
2018-02-01T04:21:10.694Z,992.62
2018-02-01T04:22:10.723Z,992.54
2018-02-01T04:23:10.750Z,992.54
2018-02-01T04:24:10.779Z,992.56
2018-02-01T04:25:10.846Z,992.57
2018-02-01T04:26:10.835Z,992.53
2018-02-01T04:27:10.862Z,992.54
2018-02-01T04:28:10.890Z,992.53
2018-02-01T04:29:10.922Z,992.52
2018-02-01T04:30:10.947Z,992.48
2018-02-01T04:31:10.978Z,992.51
2018-02-01T04:32:11.002Z,992.50
2018-02-01T04:33:11.030Z,992.56
2018-02-01T04:34:11.060Z,992.57
2018-02-01T04:35:11.104Z,992.60
2018-02-01T04:36:11.114Z,992.57
2018-02-01T04:37:11.143Z,992.50
2018-02-01T04:38:11.172Z,992.56
2018-02-01T04:39:11.200Z,992.58
2018-02-01T04:40:11.265Z,992.57
2018-02-01T04:41:11.256Z,992.54
2018-02-01T04:42:11.284Z,992.55
2018-02-01T04:43:11.324Z,992.60
2018-02-01T04:44:11.341Z,992.57
2018-02-01T04:45:11.371Z,992.64
2018-02-01T04:46:11.396Z,992.62
2018-02-01T04:47:11.461Z,992.62
2018-02-01T04:48:11.451Z,992.66
2018-02-01T04:49:11.479Z,992.63
2018-02-01T04:50:11.508Z,992.63
2018-02-01T04:51:11.535Z,992.61
2018-02-01T04:52:11.563Z,992.61
2018-02-01T04:53:11.592Z,992.65
2018-02-01T04:54:11.619Z,992.67
2018-02-01T04:55:11.647Z,992.67
2018-02-01T04:56:11.707Z,992.65
2018-02-01T04:57:11.706Z,992.66
2018-02-01T04:58:11.732Z,992.61
2018-02-01T04:59:11.784Z,992.61
2018-02-01T05:00:11.816Z,992.60
2018-02-01T05:01:11.818Z,992.57
2018-02-01T05:02:11.844Z,992.55
2018-02-01T05:03:11.872Z,992.56
2018-02-01T05:04:11.900Z,992.58
2018-02-01T05:05:11.929Z,992.56
2018-02-01T05:06:11.956Z,992.55
2018-02-01T05:07:11.984Z,992.50
2018-02-01T05:08:12.012Z,992.50
2018-02-01T05:09:12.041Z,992.52
2018-02-01T05:10:12.068Z,992.47
2018-02-01T05:11:12.097Z,992.50
2018-02-01T05:12:12.124Z,992.49
2018-02-01T05:13:12.152Z,992.47
2018-02-01T05:14:12.181Z,992.52
2018-02-01T05:15:12.208Z,992.52
2018-02-01T05:16:12.236Z,992.48
2018-02-01T05:17:12.264Z,992.51
2018-02-01T05:18:12.293Z,992.51
2018-02-01T05:19:12.324Z,992.51
2018-02-01T05:20:12.349Z,992.52
2018-02-01T05:21:12.376Z,992.51
2018-02-01T05:22:12.437Z,992.51
2018-02-01T05:23:12.432Z,992.55
2018-02-01T05:24:12.460Z,992.58
2018-02-01T05:25:12.488Z,992.61
2018-02-01T05:26:12.541Z,992.68
2018-02-01T05:27:12.561Z,992.69
2018-02-01T05:28:12.572Z,992.68
2018-02-01T05:29:12.600Z,992.64
2018-02-01T05:30:12.664Z,992.67
2018-02-01T05:31:12.656Z,992.68
2018-02-01T05:32:12.685Z,992.72
2018-02-01T05:33:12.712Z,992.60
2018-02-01T05:34:12.740Z,992.73
2018-02-01T05:35:12.774Z,992.74
2018-02-01T05:36:12.797Z,992.75
2018-02-01T05:37:12.825Z,992.75
2018-02-01T05:38:12.854Z,992.76
2018-02-01T05:39:12.881Z,992.76
2018-02-01T05:40:12.909Z,992.70
2018-02-01T05:41:12.936Z,992.70
2018-02-01T05:42:12.965Z,992.74
2018-02-01T05:43:12.993Z,992.77
2018-02-01T05:44:13.021Z,992.70
2018-02-01T05:45:13.053Z,992.71
2018-02-01T05:46:13.078Z,992.67
2018-02-01T05:47:13.110Z,992.68
2018-02-01T05:48:13.136Z,992.75
2018-02-01T05:49:13.162Z,992.67
2018-02-01T05:50:13.189Z,992.69
2018-02-01T05:51:13.217Z,992.69
2018-02-01T05:52:13.247Z,992.74
2018-02-01T05:53:13.274Z,992.68
2018-02-01T05:54:13.333Z,992.73
2018-02-01T05:55:13.329Z,992.73
2018-02-01T05:56:13.358Z,992.66
2018-02-01T05:57:13.386Z,992.58
2018-02-01T05:58:13.414Z,992.52
2018-02-01T05:59:13.445Z,992.66
2018-02-01T06:00:13.470Z,992.60
2018-02-01T06:01:13.498Z,992.64
2018-02-01T06:02:13.532Z,992.71
2018-02-01T06:03:13.554Z,992.64
2018-02-01T06:04:13.582Z,992.66
2018-02-01T06:05:13.611Z,992.68
2018-02-01T06:06:13.653Z,992.74
2018-02-01T06:07:13.667Z,992.68
2018-02-01T06:08:13.695Z,992.69
2018-02-01T06:09:13.723Z,992.66
2018-02-01T06:10:13.752Z,992.63
2018-02-01T06:11:13.787Z,992.61
2018-02-01T06:12:13.818Z,992.67
2018-02-01T06:13:13.836Z,992.68
2018-02-01T06:14:13.903Z,992.62
2018-02-01T06:15:13.893Z,992.64
2018-02-01T06:16:13.937Z,992.72
2018-02-01T06:17:13.950Z,992.73
2018-02-01T06:18:13.978Z,992.71
2018-02-01T06:19:14.022Z,992.69
2018-02-01T06:20:14.033Z,992.69
2018-02-01T06:21:14.062Z,992.69
2018-02-01T06:22:14.090Z,992.70
2018-02-01T06:23:14.118Z,992.72
2018-02-01T06:24:14.176Z,992.74
2018-02-01T06:25:14.175Z,992.76
2018-02-01T06:26:14.203Z,992.71
2018-02-01T06:27:14.231Z,992.73
2018-02-01T06:28:14.259Z,992.72
2018-02-01T06:29:14.290Z,992.70
2018-02-01T06:30:14.316Z,992.72
2018-02-01T06:31:14.343Z,992.71
2018-02-01T06:32:14.372Z,992.70
2018-02-01T06:33:14.400Z,992.71
2018-02-01T06:34:14.429Z,992.72
2018-02-01T06:35:14.455Z,992.69
2018-02-01T06:36:14.514Z,992.68
2018-02-01T06:37:14.513Z,992.65
2018-02-01T06:38:14.582Z,992.66
2018-02-01T06:39:14.569Z,992.71
2018-02-01T06:40:14.597Z,992.70
2018-02-01T06:41:14.627Z,992.66
2018-02-01T06:42:14.654Z,992.64
2018-02-01T06:43:14.682Z,992.64
2018-02-01T06:44:14.709Z,992.64
2018-02-01T06:45:14.739Z,992.65
2018-02-01T06:46:15.538Z,992.73
2018-02-01T06:47:14.797Z,992.63
2018-02-01T06:48:14.823Z,992.70
2018-02-01T06:49:14.886Z,992.69
2018-02-01T06:50:14.880Z,992.68
2018-02-01T06:51:14.907Z,992.72
2018-02-01T06:52:14.936Z,992.74
2018-02-01T06:53:14.964Z,992.72
2018-02-01T06:54:15.005Z,992.75
2018-02-01T06:55:15.020Z,992.83
2018-02-01T06:56:15.049Z,992.80
2018-02-01T06:57:15.079Z,992.82
2018-02-01T06:58:15.105Z,992.81
2018-02-01T06:59:15.134Z,992.77
2018-02-01T07:00:15.163Z,992.86
2018-02-01T07:01:15.190Z,992.81
2018-02-01T07:02:15.218Z,992.82
2018-02-01T07:03:15.246Z,992.82
2018-02-01T07:04:15.274Z,992.85
2018-02-01T07:05:15.305Z,992.86
2018-02-01T07:06:15.351Z,992.93
2018-02-01T07:07:15.358Z,992.90
2018-02-01T07:08:15.386Z,992.88
2018-02-01T07:09:15.421Z,992.93
2018-02-01T07:10:15.444Z,993.01
2018-02-01T07:11:15.474Z,992.97
2018-02-01T07:12:15.500Z,992.95
2018-02-01T07:13:15.562Z,992.95
2018-02-01T07:14:15.582Z,992.96
2018-02-01T07:15:15.584Z,992.96
2018-02-01T07:16:15.627Z,992.89
2018-02-01T07:17:15.658Z,992.87
2018-02-01T07:18:15.670Z,992.86
2018-02-01T07:19:15.703Z,992.82
2018-02-01T07:20:15.726Z,992.86
2018-02-01T07:21:15.754Z,992.93
2018-02-01T07:22:15.783Z,992.85
2018-02-01T07:23:15.813Z,992.84
2018-02-01T07:24:15.838Z,992.85
2018-02-01T07:25:15.868Z,992.86
2018-02-01T07:26:15.896Z,992.91
2018-02-01T07:27:15.922Z,992.96
2018-02-01T07:28:15.951Z,992.97
2018-02-01T07:29:15.980Z,992.96
2018-02-01T07:30:16.009Z,992.92
2018-02-01T07:31:16.036Z,992.94
2018-02-01T07:32:16.099Z,992.88
2018-02-01T07:33:16.093Z,992.92
2018-02-01T07:34:16.122Z,992.93
2018-02-01T07:35:16.149Z,992.87
2018-02-01T07:36:16.196Z,992.89
2018-02-01T07:37:16.206Z,992.89
2018-02-01T07:38:16.234Z,992.88
2018-02-01T07:39:16.263Z,992.80
2018-02-01T07:40:16.292Z,992.79
2018-02-01T07:41:16.319Z,992.83
2018-02-01T07:42:16.350Z,992.81
2018-02-01T07:43:16.374Z,992.87
2018-02-01T07:44:16.403Z,992.83
2018-02-01T07:45:16.433Z,992.83
2018-02-01T07:46:16.460Z,992.72
2018-02-01T07:47:16.488Z,992.75
2018-02-01T07:48:16.520Z,992.71
2018-02-01T07:49:16.546Z,992.76
2018-02-01T07:50:16.574Z,992.64
2018-02-01T07:51:16.638Z,992.72
2018-02-01T07:52:16.629Z,992.68
2018-02-01T07:53:16.664Z,992.67
2018-02-01T07:54:16.686Z,992.68
2018-02-01T07:55:16.713Z,992.71
2018-02-01T07:56:16.742Z,992.75
2018-02-01T07:57:16.770Z,992.68
2018-02-01T07:58:16.802Z,992.68
2018-02-01T07:59:16.830Z,992.67
2018-02-01T08:00:16.854Z,992.59
2018-02-01T08:01:16.883Z,992.53
2018-02-01T08:02:16.912Z,992.52
2018-02-01T08:03:16.965Z,992.50
2018-02-01T08:04:16.968Z,992.47
2018-02-01T08:05:16.997Z,992.44
2018-02-01T08:06:17.025Z,992.38
2018-02-01T08:07:17.053Z,992.38
2018-02-01T08:08:17.082Z,992.33
2018-02-01T08:09:17.136Z,992.35
2018-02-01T08:10:17.143Z,992.35
2018-02-01T08:11:17.190Z,992.40
2018-02-01T08:12:17.194Z,992.41
2018-02-01T08:13:17.223Z,992.45
2018-02-01T08:14:17.252Z,992.50
2018-02-01T08:15:17.281Z,992.44
2018-02-01T08:16:17.308Z,992.40
2018-02-01T08:17:17.337Z,992.43
2018-02-01T08:18:17.365Z,992.47
2018-02-01T08:19:17.394Z,992.44
2018-02-01T08:20:17.499Z,992.43
2018-02-01T08:21:17.455Z,992.45
2018-02-01T08:22:17.507Z,992.44
2018-02-01T08:23:17.505Z,992.42
2018-02-01T08:24:17.534Z,992.47
2018-02-01T08:25:17.563Z,992.48
2018-02-01T08:26:17.591Z,992.47
2018-02-01T08:27:17.619Z,992.52
2018-02-01T08:28:17.648Z,992.56
2018-02-01T08:29:17.680Z,992.53
2018-02-01T08:30:17.720Z,992.53
2018-02-01T08:31:17.731Z,992.53
2018-02-01T08:32:17.779Z,992.54
2018-02-01T08:33:17.790Z,992.52
2018-02-01T08:34:17.818Z,992.57
2018-02-01T08:35:17.845Z,992.55
2018-02-01T08:36:17.880Z,992.56
2018-02-01T08:37:17.903Z,992.54
2018-02-01T08:38:17.937Z,992.51
2018-02-01T08:39:18.665Z,992.52
2018-02-01T08:40:17.989Z,992.51
2018-02-01T08:41:18.017Z,992.46
2018-02-01T08:42:18.596Z,992.47
2018-02-01T08:43:18.072Z,992.47
2018-02-01T08:44:18.104Z,992.46
2018-02-01T08:45:18.148Z,992.45
2018-02-01T08:46:18.168Z,992.43
2018-02-01T08:47:18.186Z,992.48
2018-02-01T08:48:18.215Z,992.41
2018-02-01T08:49:18.283Z,992.37
2018-02-01T08:50:18.307Z,992.36
2018-02-01T08:51:18.299Z,992.33
2018-02-01T08:52:18.326Z,992.34
2018-02-01T08:53:18.358Z,992.31
2018-02-01T08:54:18.385Z,992.27
2018-02-01T08:55:18.414Z,992.25
2018-02-01T08:56:18.441Z,992.31
2018-02-01T08:57:18.495Z,992.28
2018-02-01T08:58:18.498Z,992.22
2018-02-01T08:59:18.525Z,992.21
2018-02-01T09:00:18.554Z,992.25
2018-02-01T09:01:18.583Z,992.19
2018-02-01T09:02:18.611Z,992.20
2018-02-01T09:03:18.640Z,992.17
2018-02-01T09:04:18.667Z,992.19
2018-02-01T09:05:18.695Z,992.21
2018-02-01T09:06:18.725Z,992.17
2018-02-01T09:07:18.754Z,992.17
2018-02-01T09:08:18.781Z,992.16
2018-02-01T09:09:18.810Z,992.10
2018-02-01T09:10:18.873Z,992.05
2018-02-01T09:11:18.866Z,992.04
2018-02-01T09:12:18.894Z,992.05
2018-02-01T09:13:18.922Z,992.11
2018-02-01T09:14:18.953Z,992.10
2018-02-01T09:15:18.979Z,992.14
2018-02-01T09:16:19.009Z,992.12
2018-02-01T09:17:19.035Z,992.06
2018-02-01T09:18:19.064Z,992.09
2018-02-01T09:19:19.092Z,992.04
2018-02-01T09:20:19.121Z,992.06
2018-02-01T09:21:19.149Z,992.06
2018-02-01T09:22:19.181Z,992.03
2018-02-01T09:23:19.208Z,991.87
2018-02-01T09:24:19.234Z,991.93
2018-02-01T09:25:19.268Z,991.90
2018-02-01T09:26:19.294Z,991.80
2018-02-01T09:27:19.319Z,991.89
2018-02-01T09:28:19.347Z,991.90
2018-02-01T09:29:19.375Z,991.94
2018-02-01T09:30:19.405Z,991.97
2018-02-01T09:31:19.467Z,991.93
2018-02-01T09:32:19.465Z,991.94
2018-02-01T09:33:19.490Z,991.98
2018-02-01T09:34:19.522Z,991.88
2018-02-01T09:35:19.546Z,991.90
2018-02-01T09:36:19.581Z,991.87
2018-02-01T09:37:19.603Z,991.84
2018-02-01T09:38:19.636Z,991.85
2018-02-01T09:39:19.665Z,991.86
2018-02-01T09:40:19.693Z,991.72
2018-02-01T09:41:19.717Z,991.78
2018-02-01T09:42:19.746Z,991.72
2018-02-01T09:43:19.776Z,991.78
2018-02-01T09:44:19.804Z,991.68
2018-02-01T09:45:19.831Z,991.73
2018-02-01T09:46:19.865Z,991.73
2018-02-01T09:47:19.888Z,991.68
2018-02-01T09:48:19.931Z,991.77
2018-02-01T09:49:19.982Z,991.70
2018-02-01T09:50:19.974Z,991.68
2018-02-01T09:51:20.012Z,991.72
2018-02-01T09:52:20.031Z,991.70
2018-02-01T09:53:20.068Z,991.71
2018-02-01T09:54:20.099Z,991.73
2018-02-01T09:55:20.636Z,991.73
2018-02-01T09:56:20.144Z,991.74
2018-02-01T09:57:20.173Z,991.71
2018-02-01T09:58:20.202Z,991.69
2018-02-01T09:59:20.252Z,991.67
2018-02-01T10:00:20.319Z,991.69
2018-02-01T10:01:20.287Z,991.66
2018-02-01T10:02:20.317Z,991.66
2018-02-01T10:03:20.343Z,991.62
2018-02-01T10:04:20.375Z,991.64
2018-02-01T10:05:20.402Z,991.61
2018-02-01T10:06:20.429Z,991.51
2018-02-01T10:07:20.460Z,991.50
2018-02-01T10:08:20.488Z,991.56
2018-02-01T10:09:20.516Z,991.55
2018-02-01T10:10:20.543Z,991.53
2018-02-01T10:11:20.572Z,991.52
2018-02-01T10:12:20.601Z,991.48
2018-02-01T10:13:20.629Z,991.42
2018-02-01T10:14:20.658Z,991.48
2018-02-01T10:15:20.686Z,991.44
2018-02-01T10:16:20.714Z,991.51
2018-02-01T10:17:20.746Z,991.50
2018-02-01T10:18:20.772Z,991.55
2018-02-01T10:19:20.804Z,991.56
2018-02-01T10:20:20.860Z,991.55
2018-02-01T10:21:20.861Z,991.58
2018-02-01T10:22:20.900Z,991.52
2018-02-01T10:23:20.957Z,991.51
2018-02-01T10:24:20.942Z,991.46
2018-02-01T10:25:20.972Z,991.48
2018-02-01T10:26:21.000Z,991.50
2018-02-01T10:27:21.027Z,991.45
2018-02-01T10:28:21.058Z,991.43
2018-02-01T10:29:21.088Z,991.35
2018-02-01T10:30:21.113Z,991.32
2018-02-01T10:31:21.142Z,991.31
2018-02-01T10:32:21.192Z,991.27
2018-02-01T10:33:21.199Z,991.27
2018-02-01T10:34:21.227Z,991.28
2018-02-01T10:35:21.254Z,991.25
2018-02-01T10:36:21.283Z,991.27
2018-02-01T10:37:21.311Z,991.23
2018-02-01T10:38:21.341Z,991.23
2018-02-01T10:39:21.370Z,991.22
2018-02-01T10:40:21.395Z,991.21
2018-02-01T10:41:21.431Z,991.15
2018-02-01T10:42:21.453Z,991.10
2018-02-01T10:43:21.493Z,991.09
2018-02-01T10:44:21.512Z,991.11
2018-02-01T10:45:21.536Z,991.10
2018-02-01T10:46:21.565Z,991.04
2018-02-01T10:47:21.608Z,991.03
2018-02-01T10:48:21.630Z,990.99
2018-02-01T10:49:21.651Z,990.95
2018-02-01T10:50:21.683Z,990.97
2018-02-01T10:51:21.709Z,990.92
2018-02-01T10:52:21.735Z,990.89
2018-02-01T10:53:21.767Z,990.92
2018-02-01T10:54:21.792Z,990.89
2018-02-01T10:55:21.819Z,990.96
2018-02-01T10:56:21.863Z,990.90
2018-02-01T10:57:21.915Z,990.88
2018-02-01T10:58:21.908Z,990.88
2018-02-01T10:59:21.933Z,990.85
2018-02-01T11:00:22.016Z,990.83
2018-02-01T11:01:21.993Z,990.79
2018-02-01T11:02:22.019Z,990.76
2018-02-01T11:03:22.051Z,990.79
2018-02-01T11:04:22.074Z,990.81
2018-02-01T11:05:22.104Z,990.70
2018-02-01T11:06:22.132Z,990.72
2018-02-01T11:07:22.183Z,990.76
2018-02-01T11:08:22.191Z,990.64
2018-02-01T11:09:22.218Z,990.74
2018-02-01T11:10:22.260Z,990.69
2018-02-01T11:11:22.272Z,990.57
2018-02-01T11:12:22.302Z,990.59
2018-02-01T11:13:22.332Z,990.57
2018-02-01T11:14:22.358Z,990.53
2018-02-01T11:15:22.408Z,990.57
2018-02-01T11:16:22.416Z,990.58
2018-02-01T11:17:22.443Z,990.46
2018-02-01T11:18:22.474Z,990.41
2018-02-01T11:19:22.500Z,990.41
2018-02-01T11:20:22.528Z,990.46
2018-02-01T11:21:22.557Z,990.45
2018-02-01T11:22:22.586Z,990.43
2018-02-01T11:23:22.614Z,990.43
2018-02-01T11:24:22.642Z,990.45
2018-02-01T11:25:22.670Z,990.44
2018-02-01T11:26:22.700Z,990.45
2018-02-01T11:27:22.738Z,990.50
2018-02-01T11:28:22.756Z,990.55
2018-02-01T11:29:22.784Z,990.50
2018-02-01T11:30:22.816Z,990.57
2018-02-01T11:31:22.841Z,990.52
2018-02-01T11:32:22.871Z,990.53
2018-02-01T11:33:22.899Z,990.53
2018-02-01T11:34:22.927Z,990.46
2018-02-01T11:35:22.955Z,990.44
2018-02-01T11:36:22.988Z,990.42
2018-02-01T11:37:23.075Z,990.39
2018-02-01T11:38:23.041Z,990.34
2018-02-01T11:39:23.069Z,990.33
2018-02-01T11:40:23.119Z,990.34
2018-02-01T11:41:23.126Z,990.40
2018-02-01T11:42:23.156Z,990.40
2018-02-01T11:43:23.183Z,990.42
2018-02-01T11:44:23.212Z,990.45
2018-02-01T11:45:23.241Z,990.37
2018-02-01T11:46:23.269Z,990.39
2018-02-01T11:47:23.303Z,990.40
2018-02-01T11:48:23.326Z,990.40
2018-02-01T11:49:23.357Z,990.34
2018-02-01T11:50:23.384Z,990.33
2018-02-01T11:51:23.411Z,990.26
2018-02-01T11:52:23.440Z,990.29
2018-02-01T11:53:23.472Z,990.27
2018-02-01T11:54:23.501Z,990.30
2018-02-01T11:55:23.525Z,990.29
2018-02-01T11:56:23.554Z,990.30
2018-02-01T11:57:23.582Z,990.30
2018-02-01T11:58:23.612Z,990.33
2018-02-01T11:59:23.673Z,990.35
2018-02-01T12:00:23.668Z,990.33
2018-02-01T12:01:23.701Z,990.32
2018-02-01T12:02:23.752Z,990.39
2018-02-01T12:03:23.752Z,990.35
2018-02-01T12:04:23.782Z,990.31
2018-02-01T12:05:23.846Z,990.26
2018-02-01T12:06:23.840Z,990.24
2018-02-01T12:07:23.868Z,990.28
2018-02-01T12:08:23.896Z,990.23
2018-02-01T12:09:23.925Z,990.12
2018-02-01T12:10:23.953Z,990.14
2018-02-01T12:11:23.980Z,990.15
2018-02-01T12:12:24.010Z,990.17
2018-02-01T12:13:24.057Z,990.11
2018-02-01T12:14:24.067Z,990.15
2018-02-01T12:15:24.095Z,990.20
2018-02-01T12:16:24.123Z,990.10
2018-02-01T12:17:24.152Z,990.09
2018-02-01T12:18:24.181Z,990.11
2018-02-01T12:19:24.210Z,990.10
2018-02-01T12:20:24.237Z,990.12
2018-02-01T12:21:24.266Z,990.09
2018-02-01T12:22:24.317Z,990.12
2018-02-01T12:23:24.322Z,990.04
2018-02-01T12:24:24.352Z,990.01
2018-02-01T12:25:24.380Z,990.02
2018-02-01T12:26:24.408Z,989.95
2018-02-01T12:27:24.438Z,989.99
2018-02-01T12:28:24.465Z,989.94